Time;durP1;ratioP1;P1;durP2;ratioP2;P2;SDS_P1;SDS_P2;PMS_P1;PMS_P2;Temp;Humidity;BMP_temperature;BMP_pressure;BME280_temperature;BME280_humidity;BME280_pressure;Samples;Min_cycle;Max_cycle;Signal;HPM_P1;HPM_P2
2023/04/26 00:00:44;;;;;;;7.53;4.77;;;7.30;74.10;;;;;;20832098;28;20229;-70
2023/04/26 00:10:46;;;;;;;8.80;4.30;;;7.10;74.40;;;;;;20831780;28;20217;-69
2023/04/26 00:20:48;;;;;;;8.70;4.20;;;7.10;75.00;;;;;;20831188;28;20242;-69
2023/04/26 00:30:50;;;;;;;7.80;3.83;;;7.00;76.10;;;;;;20830772;28;20239;-71
2023/04/26 00:40:51;;;;;;;9.10;4.17;;;6.80;76.60;;;;;;20830068;28;20719;-71
2023/04/26 00:50:54;;;;;;;8.23;4.23;;;6.80;77.20;;;;;;20830094;28;20202;-70
2023/04/26 01:00:55;;;;;;;6.50;3.93;;;6.60;78.00;;;;;;20829402;28;20307;-71
2023/04/26 01:10:58;;;;;;;10.90;4.10;;;6.60;78.30;;;;;;20828978;28;20213;-70
2023/04/26 01:21:00;;;;;;;9.27;4.00;;;6.60;79.10;;;;;;20829004;28;20241;-71
2023/04/26 01:31:04;;;;;;;9.10;3.93;;;6.50;79.30;;;;;;20835101;28;20796;-71
2023/04/26 01:41:05;;;;;;;7.27;4.20;;;6.50;80.00;;;;;;20842862;28;20238;-72
2023/04/26 01:51:07;;;;;;;11.37;4.20;;;6.30;79.60;;;;;;20842792;28;20209;-71
2023/04/26 02:01:10;;;;;;;10.43;4.40;;;6.10;79.90;;;;;;20841683;28;20229;-71
2023/04/26 02:11:11;;;;;;;8.53;3.97;;;6.00;80.50;;;;;;20840988;28;20308;-72
2023/04/26 02:21:16;;;;;;;12.73;4.13;;;6.00;80.50;;;;;;20840493;28;20642;-71
2023/04/26 02:31:18;;;;;;;6.17;3.70;;;5.70;81.20;;;;;;20839404;28;20656;-68
2023/04/26 02:41:23;;;;;;;5.10;3.43;;;5.60;81.60;;;;;;20838245;28;20245;-72
2023/04/26 02:51:25;;;;;;;5.87;3.43;;;5.50;82.20;;;;;;20838280;28;20204;-72
2023/04/26 03:01:27;;;;;;;7.27;4.00;;;5.40;82.70;;;;;;20837199;28;20779;-72
2023/04/26 03:11:29;;;;;;;10.77;4.07;;;5.40;83.30;;;;;;20836423;28;20300;-70
2023/04/26 03:21:31;;;;;;;6.33;3.87;;;5.40;83.80;;;;;;20836830;28;20239;-70
2023/04/26 03:31:32;;;;;;;6.80;4.37;;;5.30;84.00;;;;;;20835106;28;20223;-72
2023/04/26 03:41:38;;;;;;;7.00;3.93;;;5.20;84.40;;;;;;20833411;28;20275;-72
2023/04/26 03:51:40;;;;;;;6.20;3.57;;;5.20;85.00;;;;;;20833030;28;20242;-72
2023/04/26 04:01:41;;;;;;;8.00;3.93;;;5.10;85.00;;;;;;20832276;28;20240;-72
2023/04/26 04:11:44;;;;;;;11.57;4.10;;;5.10;85.60;;;;;;20831599;28;20278;-72
2023/04/26 04:21:48;;;;;;;9.30;4.37;;;4.80;85.70;;;;;;20831482;28;20237;-72
2023/04/26 04:31:49;;;;;;;6.97;4.37;;;4.90;86.60;;;;;;20830876;28;20660;-71
2023/04/26 04:41:53;;;;;;;9.87;4.17;;;4.80;86.90;;;;;;20829826;28;20242;-73
2023/04/26 04:51:55;;;;;;;10.23;5.17;;;4.80;87.60;;;;;;20829833;28;20231;-72
2023/04/26 05:01:57;;;;;;;19.73;5.53;;;5.10;88.40;;;;;;20827770;28;20232;-72
2023/04/26 05:11:58;;;;;;;8.77;4.47;;;5.10;89.00;;;;;;20844581;28;20222;-72
2023/04/26 05:22:02;;;;;;;9.83;4.50;;;5.80;87.90;;;;;;20844328;28;20759;-77
2023/04/26 05:32:04;;;;;;;13.50;5.13;;;5.80;88.40;;;;;;20873370;28;20221;-72
2023/04/26 05:42:06;;;;;;;22.97;6.30;;;6.10;88.30;;;;;;20887211;28;20236;-70
2023/04/26 05:52:08;;;;;;;24.77;6.30;;;6.40;88.80;;;;;;20844237;28;20222;-69
2023/04/26 06:02:10;;;;;;;16.20;5.90;;;6.70;88.20;;;;;;20840865;28;20238;-68
2023/04/26 06:12:12;;;;;;;19.50;6.17;;;7.10;87.60;;;;;;20840414;28;20205;-69
2023/04/26 06:22:14;;;;;;;15.07;5.80;;;7.50;87.20;;;;;;20839476;28;20577;-68
2023/04/26 06:32:15;;;;;;;17.17;6.80;;;7.90;86.10;;;;;;20838882;28;20216;-69
2023/04/26 06:42:17;;;;;;;14.37;5.70;;;8.00;85.70;;;;;;20838017;28;20712;-70
2023/04/26 06:52:19;;;;;;;16.47;3.77;;;8.50;84.90;;;;;;20837536;28;20291;-68
2023/04/26 07:02:23;;;;;;;14.17;3.77;;;8.70;81.80;;;;;;20836644;28;20241;-69
2023/04/26 07:12:25;;;;;;;9.23;3.40;;;8.80;80.30;;;;;;20835963;28;20205;-69
2023/04/26 07:22:26;;;;;;;10.03;3.00;;;9.20;78.00;;;;;;20835501;28;20693;-70
2023/04/26 07:32:28;;;;;;;7.30;2.40;;;9.50;76.30;;;;;;20832737;28;20209;-70
2023/04/26 07:42:30;;;;;;;6.67;2.17;;;9.70;72.10;;;;;;20832728;28;20248;-70
2023/04/26 07:52:32;;;;;;;8.37;2.83;;;10.00;69.40;;;;;;20832440;28;20215;-70
2023/04/26 08:02:35;;;;;;;7.37;2.90;;;10.00;70.00;;;;;;20831331;28;20238;-70
2023/04/26 08:12:45;;;;;;;8.97;2.60;;;10.20;68.80;;;;;;20830077;28;20610;-71
2023/04/26 08:22:47;;;;;;;9.17;3.23;;;10.50;66.60;;;;;;20830337;28;20274;-71
2023/04/26 08:32:49;;;;;;;4.73;2.07;;;11.00;65.20;;;;;;20828873;28;20215;-71
2023/04/26 08:42:52;;;;;;;9.37;3.00;;;11.10;58.30;;;;;;20828732;28;20267;-70
2023/04/26 08:52:54;;;;;;;5.73;2.43;;;11.60;57.90;;;;;;20829069;28;20217;-69
2023/04/26 09:02:56;;;;;;;8.90;2.33;;;11.20;58.10;;;;;;20828492;28;20242;-71
2023/04/26 09:12:58;;;;;;;10.93;3.80;;;11.60;57.00;;;;;;20827863;28;20209;-68
2023/04/26 09:23:05;;;;;;;6.43;1.90;;;11.70;54.20;;;;;;20828124;28;20292;-69
2023/04/26 09:33:08;;;;;;;4.37;2.20;;;;;;;;;;20827286;28;20206;-69
2023/04/26 09:43:11;;;;;;;5.47;2.50;;;;;;;;;;20826864;28;20246;-69
2023/04/26 09:53:29;;;;;;;12.17;7.27;;;;;;;;;;20836056;28;20208;-69
2023/04/26 10:03:33;;;;;;;13.70;2.20;;;;;;;;;;20840712;28;20240;-69
2023/04/26 10:13:36;;;;;;;5.23;2.20;;;;;;;;;;20840087;28;20291;-70
2023/04/26 10:23:40;;;;;;;8.63;2.40;;;;;;;;;;20839299;28;20250;-70
2023/04/26 10:33:42;;;;;;;5.53;2.47;;;;;;;;;;20838567;28;20302;-70
2023/04/26 10:43:44;;;;;;;6.97;2.43;;;;;;;;;;20836862;28;20251;-70
2023/04/26 10:53:46;;;;;;;7.27;2.40;;;;;;;;;;20836846;28;20222;-69
2023/04/26 11:03:57;;;;;;;6.73;2.30;;;;;;;;;;20836126;28;20295;-70
2023/04/26 11:14:01;;;;;;;5.90;2.43;;;;;;;;;;20835233;28;20634;-70
2023/04/26 11:24:03;;;;;;;4.50;2.17;;;;;;;;;;20836173;28;20335;-70
2023/04/26 11:34:06;;;;;;;4.13;1.80;;;;;;;;;;20834175;28;20235;-69
2023/04/26 11:44:10;;;;;;;10.30;5.97;;;;;;;;;;20832519;28;20254;-70
2023/04/26 11:54:26;;;;;;;4.00;2.17;;;;;;;;;;20831971;28;20308;-69
2023/04/26 12:04:28;;;;;;;8.60;2.30;;;;;;;;;;20830146;28;20245;-70
2023/04/26 12:14:32;;;;;;;6.20;2.30;;;;;;;;;;20830007;28;20214;-70
2023/04/26 12:24:36;;;;;;;5.53;2.10;;;;;;;;;;20827951;28;20248;-70
2023/04/26 12:34:38;;;;;;;6.93;2.20;;;;;;;;;;20828919;28;20213;-71
2023/04/26 12:44:40;;;;;;;3.40;1.90;;;;;;;;;;20828851;28;20246;-71
2023/04/26 12:54:43;;;;;;;5.47;1.90;;;14.40;40.40;;;;;;20830038;28;20288;-70
2023/04/26 13:04:45;;;;;;;10.47;6.00;;;14.50;39.20;;;;;;20827960;28;20241;-70
2023/04/26 13:14:47;;;;;;;4.97;2.27;;;14.60;40.50;;;;;;20827676;28;20211;-73
2023/04/26 13:24:49;;;;;;;3.37;2.10;;;15.30;39.30;;;;;;20829219;28;20314;-70
2023/04/26 13:34:52;;;;;;;4.00;2.30;;;15.30;39.90;;;;;;20847971;28;20201;-68
2023/04/26 13:44:53;;;;;;;5.13;2.20;;;15.00;39.80;;;;;;20880317;28;20331;-69
2023/04/26 13:54:55;;;;;;;2.80;1.83;;;19.80;38.00;;;;;;20878091;28;20206;-67
2023/04/26 14:04:57;;;;;;;3.77;1.90;;;19.90;35.80;;;;;;20906144;28;20241;-66
2023/04/26 14:15:02;;;;;;;4.28;1.73;;;19.60;36.60;;;;;;20921892;28;20219;-66
2023/04/26 14:25:05;;;;;;;6.27;2.20;;;22.20;37.10;;;;;;20921844;28;20232;-66
2023/04/26 14:35:06;;;;;;;14.03;1.93;;;21.10;33.60;;;;;;20921128;28;20536;-66
2023/04/26 14:45:09;;;;;;;3.57;2.07;;;19.60;34.30;;;;;;20920100;28;20607;-65
2023/04/26 14:55:17;;;;;;;5.77;1.90;;;21.60;33.50;;;;;;20919493;28;20682;-66
2023/04/26 15:05:20;;;;;;;8.07;1.90;;;20.60;32.70;;;;;;20919379;28;20239;-66
2023/04/26 15:15:23;;;;;;;6.67;1.93;;;19.40;32.80;;;;;;20918426;28;20215;-66
2023/04/26 15:25:24;;;;;;;5.93;2.17;;;19.00;33.60;;;;;;20917645;28;20237;-65
2023/04/26 15:35:26;;;;;;;4.60;2.03;;;19.30;34.00;;;;;;20916925;28;20205;-65
2023/04/26 15:45:28;;;;;;;5.70;2.20;;;19.70;34.00;;;;;;20914850;28;20740;-66
2023/04/26 15:55:32;;;;;;;5.53;2.20;;;19.20;34.00;;;;;;20914671;28;20209;-66
2023/04/26 16:05:34;;;;;;;5.17;2.00;;;;;;;;;;20911183;28;20288;-69
2023/04/26 16:15:36;;;;;;;9.25;3.53;;;22.10;33.00;;;;;;20867908;28;20208;-70
2023/04/26 16:25:38;;;;;;;5.90;2.30;;;23.70;30.60;;;;;;20902460;28;20291;-73
2023/04/26 16:35:40;;;;;;;3.35;1.90;;;22.80;29.80;;;;;;20885445;28;20254;-72
2023/04/26 16:45:42;;;;;;;5.20;2.03;;;22.70;30.60;;;;;;20856786;28;20240;-68
2023/04/26 16:55:44;;;;;;;4.73;2.00;;;22.20;30.20;;;;;;20828979;28;20651;-68
2023/04/26 17:05:47;;;;;;;3.27;2.00;;;21.00;31.00;;;;;;20844778;28;20599;-67
2023/04/26 17:15:48;;;;;;;6.53;2.10;;;20.30;31.00;;;;;;20864905;28;20216;-67
2023/04/26 17:25:50;;;;;;;3.43;2.23;;;18.00;32.50;;;;;;20926936;28;20733;-68
2023/04/26 17:35:55;;;;;;;6.63;2.20;;;16.70;33.70;;;;;;20926503;28;20301;-66
2023/04/26 17:45:57;;;;;;;3.43;1.87;;;15.60;34.80;;;;;;20924734;28;20250;-67
2023/04/26 17:55:59;;;;;;;4.30;1.93;;;14.70;36.00;;;;;;20924299;28;20211;-67
2023/04/26 18:06:00;;;;;;;3.10;2.17;;;14.20;37.00;;;;;;20924457;28;20343;-65
2023/04/26 18:16:02;;;;;;;6.50;2.30;;;14.20;37.70;;;;;;20900833;28;20618;-66
2023/04/26 18:26:04;;;;;;;7.97;2.33;;;13.80;39.00;;;;;;20838076;28;20241;-67
2023/04/26 18:36:06;;;;;;;5.60;2.13;;;13.30;39.90;;;;;;20837602;28;20680;-67
2023/04/26 18:46:08;;;;;;;6.03;1.83;;;13.10;41.00;;;;;;20837868;28;20713;-66
2023/04/26 18:56:09;;;;;;;3.37;2.23;;;12.80;41.60;;;;;;20835988;28;20213;-65
2023/04/26 19:09:55;;;;;;;4.70;2.10;;;12.20;42.10;;;;;;20982437;28;20562;-64
2023/04/26 19:20:01;;;;;;;5.27;2.60;;;12.20;42.80;;;;;;20982162;28;20208;-63
2023/04/26 19:30:04;;;;;;;5.40;3.30;;;12.00;43.50;;;;;;20980901;28;20214;-64
2023/04/26 19:40:08;;;;;;;12.40;3.33;;;11.70;44.50;;;;;;20979636;28;20216;-64
2023/04/26 19:50:10;;;;;;;6.40;3.00;;;11.60;45.50;;;;;;20979800;28;20554;-63
2023/04/26 20:00:14;;;;;;;10.90;3.57;;;;;;;;;;20976602;28;20221;-67
2023/04/26 20:10:16;;;;;;;8.17;4.30;;;11.10;49.20;;;;;;20978156;28;20212;-66
2023/04/26 20:20:18;;;;;;;21.07;4.43;;;10.60;50.50;;;;;;20872803;28;20236;-66
2023/04/26 20:30:19;;;;;;;8.03;4.30;;;10.50;51.00;;;;;;20840805;28;20209;-69
2023/04/26 20:40:21;;;;;;;9.70;4.10;;;10.40;51.30;;;;;;20839848;28;20255;-64
2023/04/26 20:50:23;;;;;;;11.53;4.20;;;10.30;51.40;;;;;;20839670;28;20297;-68
2023/04/26 21:00:25;;;;;;;9.70;4.90;;;10.00;53.00;;;;;;20838359;28;20779;-64
2023/04/26 21:10:26;;;;;;;12.87;5.50;;;10.00;53.60;;;;;;20838020;28;20251;-69
2023/04/26 21:20:28;;;;;;;9.77;4.90;;;9.70;55.50;;;;;;20895543;28;20231;-67
2023/04/26 21:30:30;;;;;;;14.67;4.30;;;9.30;56.20;;;;;;20917875;28;20232;-66
2023/04/26 21:40:31;;;;;;;6.97;3.80;;;9.00;56.50;;;;;;20918114;28;20253;-67
2023/04/26 21:50:33;;;;;;;8.67;4.33;;;9.00;57.00;;;;;;20915105;28;20210;-66
2023/04/26 22:00:35;;;;;;;7.43;4.00;;;8.90;57.80;;;;;;20914680;28;20234;-66
2023/04/26 22:10:37;;;;;;;11.37;3.70;;;8.50;57.50;;;;;;20915557;28;20627;-71
2023/04/26 22:20:38;;;;;;;10.73;4.40;;;8.50;58.10;;;;;;20912647;28;20238;-66
2023/04/26 22:30:40;;;;;;;8.37;4.33;;;8.50;58.60;;;;;;20908803;28;20719;-66
2023/04/26 22:40:42;;;;;;;7.63;4.20;;;;;;;;;;20912830;28;20237;-66
2023/04/26 22:50:48;;;;;;;9.87;3.80;;;8.10;59.60;;;;;;20913558;28;20233;-66
2023/04/26 23:00:50;;;;;;;10.60;4.83;;;8.10;60.10;;;;;;20912528;28;20241;-65
2023/04/26 23:10:52;;;;;;;13.33;4.50;;;8.10;60.90;;;;;;20912602;28;20241;-66
2023/04/26 23:20:53;;;;;;;7.10;3.90;;;8.00;60.90;;;;;;20912485;28;20593;-67
2023/04/26 23:30:55;;;;;;;10.13;4.00;;;7.80;61.90;;;;;;20911382;28;20213;-66
2023/04/26 23:40:57;;;;;;;9.17;3.63;;;7.70;62.10;;;;;;20909931;28;20574;-66
2023/04/26 23:50:59;;;;;;;7.20;3.77;;;7.70;62.70;;;;;;20917611;28;20259;-69
